Nor'quest — WDJ4041 — position and weather

sailwx.info

Track history (hours):
 
Tides and Currents Weather Stations Pressure Air Temp Water Temp Dewpoint Dewpoint Depression Visibility Wind Speed Wind Dir Waves Ship Positions

Nor'quest

Owner: SRW Marine Services, LLC, Seattle, WA. More information available from US FCC via Universal Licensing System and Coast Guard Vessel Documentation Center.

Last reported at 2017-Sep-24 00:42 UTC. Time now 2017-Oct-18 18:52 UTC.
Position N 48°31' W 122°39'.
Warning: this ship's position is 24 days out of date.

Length 6 m; draft 3 m.

Type: Fishing. MMSI: 367119230.

Date/timePositionNaut miles runAvg speedWind from/ knotsBaromVisibWave heightAir tempDewpointWater temp
2017-Sep-24 00:42N 48°31' W 122°39'0 0.4
2017-Sep-24 00:30N 48°31' W 122°39'4 8.2
2017-Sep-23 23:58N 48°35' W 122°40'4 9.1
2017-Sep-23 23:30N 48°39' W 122°43'5 9.4
2017-Sep-23 22:59N 48°43' W 122°46'7 9.9
2017-Sep-23 22:15N 48°47' W 122°55'4 9.9
2017-Sep-23 21:49N 48°50' W 123°00'3 9.5
2017-Sep-23 21:27N 48°52' W 123°04'510.1
2017-Sep-23 21:00N 48°55' W 123°10'510.3
2017-Sep-23 20:28N 48°58' W 123°16'510.6
2017-Sep-23 19:59N 49°02' W 123°22'  
Track history (hours):
 
Tides and Currents Weather Stations Pressure Air Temp Water Temp Dewpoint Dewpoint Depression Visibility Wind Speed Wind Dir Waves Ship Positions

Nor'quest

Owner: SRW Marine Services, LLC, Seattle, WA. More information available from US FCC via Universal Licensing System and Coast Guard Vessel Documentation Center.

Last reported at 2017-Sep-24 00:42 UTC. Time now 2017-Oct-18 18:52 UTC.
Position N 48°31' W 122°39'.
Warning: this ship's position is 24 days out of date.

Length 6 m; draft 3 m.

Type: Fishing. MMSI: 367119230.

Date/timePositionNaut miles runAvg speedWind from/ knotsBaromVisibWave heightAir tempDewpointWater temp
2017-Sep-24 00:42N 48°31' W 122°39'0 0.4
2017-Sep-24 00:30N 48°31' W 122°39'4 8.2
2017-Sep-23 23:58N 48°35' W 122°40'4 9.1
2017-Sep-23 23:30N 48°39' W 122°43'5 9.4
2017-Sep-23 22:59N 48°43' W 122°46'7 9.9
2017-Sep-23 22:15N 48°47' W 122°55'4 9.9
2017-Sep-23 21:49N 48°50' W 123°00'3 9.5
2017-Sep-23 21:27N 48°52' W 123°04'510.1
2017-Sep-23 21:00N 48°55' W 123°10'510.3
2017-Sep-23 20:28N 48°58' W 123°16'510.6
2017-Sep-23 19:59N 49°02' W 123°22'  

Dump ship's entire track history